sensor_id;sensor_type;location;lat;lon;timestamp;pressure;altitude;pressure_sealevel;temperature;humidity
59971;BME280;45825;45.434;9.116;2023-02-20T00:00:17;101209.69;;;10.36;83.67
59971;BME280;45825;45.434;9.116;2023-02-20T00:02:44;101210.59;;;10.35;84.05
59971;BME280;45825;45.434;9.116;2023-02-20T00:05:11;101203.75;;;10.31;84.04
59971;BME280;45825;45.434;9.116;2023-02-20T00:07:37;101211.53;;;10.34;83.62
59971;BME280;45825;45.434;9.116;2023-02-20T00:10:02;101209.56;;;10.39;83.92
59971;BME280;45825;45.434;9.116;2023-02-20T00:12:27;101218.13;;;10.46;83.74
59971;BME280;45825;45.434;9.116;2023-02-20T00:14:53;101218.03;;;10.47;82.55
59971;BME280;45825;45.434;9.116;2023-02-20T00:17:18;101226.06;;;10.44;83.32
59971;BME280;45825;45.434;9.116;2023-02-20T00:19:44;101227.25;;;10.36;83.46
59971;BME280;45825;45.434;9.116;2023-02-20T00:22:09;101232.13;;;10.46;82.66
59971;BME280;45825;45.434;9.116;2023-02-20T00:24:34;101232.25;;;10.43;82.34
59971;BME280;45825;45.434;9.116;2023-02-20T00:27:00;101242.84;;;10.40;82.82
59971;BME280;45825;45.434;9.116;2023-02-20T00:29:25;101242.81;;;10.42;82.50
59971;BME280;45825;45.434;9.116;2023-02-20T00:31:55;101251.22;;;10.28;83.35
59971;BME280;45825;45.434;9.116;2023-02-20T00:34:22;101254.94;;;10.22;84.31
59971;BME280;45825;45.434;9.116;2023-02-20T00:36:47;101252.31;;;10.22;83.67
59971;BME280;45825;45.434;9.116;2023-02-20T00:39:13;101257.03;;;10.14;84.65
59971;BME280;45825;45.434;9.116;2023-02-20T00:41:38;101259.34;;;10.22;84.32
59971;BME280;45825;45.434;9.116;2023-02-20T00:44:03;101268.03;;;10.24;84.56
59971;BME280;45825;45.434;9.116;2023-02-20T00:46:29;101261.38;;;10.15;85.26
59971;BME280;45825;45.434;9.116;2023-02-20T00:48:54;101262.16;;;10.17;85.23
59971;BME280;45825;45.434;9.116;2023-02-20T00:51:19;101254.56;;;10.09;85.80
59971;BME280;45825;45.434;9.116;2023-02-20T00:53:44;101264.84;;;10.15;85.38
59971;BME280;45825;45.434;9.116;2023-02-20T00:56:10;101257.13;;;10.11;85.42
59971;BME280;45825;45.434;9.116;2023-02-20T00:58:35;101254.41;;;10.14;85.73
59971;BME280;45825;45.434;9.116;2023-02-20T01:01:01;101254.44;;;10.12;85.77
59971;BME280;45825;45.434;9.116;2023-02-20T01:03:26;101242.97;;;10.15;85.42
59971;BME280;45825;45.434;9.116;2023-02-20T01:05:51;101234.25;;;10.13;85.09
59971;BME280;45825;45.434;9.116;2023-02-20T01:08:17;101242.13;;;10.13;85.31
59971;BME280;45825;45.434;9.116;2023-02-20T01:10:42;101244.97;;;10.08;85.54
59971;BME280;45825;45.434;9.116;2023-02-20T01:13:07;101240.59;;;10.07;86.28
59971;BME280;45825;45.434;9.116;2023-02-20T01:15:32;101241.00;;;9.96;85.91
59971;BME280;45825;45.434;9.116;2023-02-20T01:17:58;101233.78;;;10.01;86.13
59971;BME280;45825;45.434;9.116;2023-02-20T01:20:23;101232.78;;;10.05;85.57
59971;BME280;45825;45.434;9.116;2023-02-20T01:22:49;101239.53;;;9.89;86.98
59971;BME280;45825;45.434;9.116;2023-02-20T01:25:14;101234.22;;;9.90;87.54
59971;BME280;45825;45.434;9.116;2023-02-20T01:27:39;101232.66;;;9.85;87.25
59971;BME280;45825;45.434;9.116;2023-02-20T01:30:06;101224.53;;;9.91;87.09
59971;BME280;45825;45.434;9.116;2023-02-20T01:32:31;101225.97;;;10.00;86.68
59971;BME280;45825;45.434;9.116;2023-02-20T01:34:56;101229.72;;;9.94;86.97
59971;BME280;45825;45.434;9.116;2023-02-20T01:37:22;101237.06;;;9.84;87.01
59971;BME280;45825;45.434;9.116;2023-02-20T01:39:47;101234.78;;;9.99;85.71
59971;BME280;45825;45.434;9.116;2023-02-20T01:42:17;101232.09;;;10.00;85.67
59971;BME280;45825;45.434;9.116;2023-02-20T01:44:44;101238.88;;;10.06;84.79
59971;BME280;45825;45.434;9.116;2023-02-20T01:47:15;101235.41;;;10.05;85.19
59971;BME280;45825;45.434;9.116;2023-02-20T01:49:45;101232.88;;;10.02;85.42
59971;BME280;45825;45.434;9.116;2023-02-20T01:52:33;101240.72;;;10.04;85.17
59971;BME280;45825;45.434;9.116;2023-02-20T01:55:02;101239.34;;;9.93;86.16
59971;BME280;45825;45.434;9.116;2023-02-20T01:57:31;101241.34;;;9.87;86.17
59971;BME280;45825;45.434;9.116;2023-02-20T02:00:01;101248.94;;;9.95;85.72
59971;BME280;45825;45.434;9.116;2023-02-20T02:02:30;101251.56;;;9.95;85.25
59971;BME280;45825;45.434;9.116;2023-02-20T02:04:57;101257.91;;;9.89;85.62
59971;BME280;45825;45.434;9.116;2023-02-20T02:07:22;101260.63;;;9.87;85.05
59971;BME280;45825;45.434;9.116;2023-02-20T02:09:53;101257.88;;;9.90;85.65
59971;BME280;45825;45.434;9.116;2023-02-20T02:12:20;101253.38;;;9.94;84.74
59971;BME280;45825;45.434;9.116;2023-02-20T02:14:46;101253.59;;;9.88;85.37
59971;BME280;45825;45.434;9.116;2023-02-20T02:34:00;101265.25;;;10.04;84.32
59971;BME280;45825;45.434;9.116;2023-02-20T02:36:37;101269.22;;;9.91;84.62
59971;BME280;45825;45.434;9.116;2023-02-20T02:41:44;101279.50;;;9.99;83.90
59971;BME280;45825;45.434;9.116;2023-02-20T02:47:26;101277.41;;;9.83;84.92
59971;BME280;45825;45.434;9.116;2023-02-20T02:49:58;101275.31;;;9.93;84.19
59971;BME280;45825;45.434;9.116;2023-02-20T02:52:27;101272.25;;;9.80;84.03
59971;BME280;45825;45.434;9.116;2023-02-20T02:55:06;101264.34;;;9.82;83.92
59971;BME280;45825;45.434;9.116;2023-02-20T02:57:31;101266.66;;;9.66;85.17
59971;BME280;45825;45.434;9.116;2023-02-20T03:00:01;101264.88;;;9.66;85.54
59971;BME280;45825;45.434;9.116;2023-02-20T03:02:33;101279.63;;;9.70;85.46
59971;BME280;45825;45.434;9.116;2023-02-20T03:05:04;101276.19;;;9.68;85.68
59971;BME280;45825;45.434;9.116;2023-02-20T03:07:32;101275.72;;;9.57;85.73
59971;BME280;45825;45.434;9.116;2023-02-20T03:10:07;101281.13;;;9.52;86.12
59971;BME280;45825;45.434;9.116;2023-02-20T03:12:35;101280.44;;;9.47;87.19
59971;BME280;45825;45.434;9.116;2023-02-20T03:15:16;101269.50;;;9.59;86.42
59971;BME280;45825;45.434;9.116;2023-02-20T03:18:24;101279.69;;;9.69;84.96
59971;BME280;45825;45.434;9.116;2023-02-20T03:20:57;101287.00;;;9.59;85.23
59971;BME280;45825;45.434;9.116;2023-02-20T03:23:26;101279.88;;;9.62;85.43
59971;BME280;45825;45.434;9.116;2023-02-20T03:26:05;101288.38;;;9.71;85.40
59971;BME280;45825;45.434;9.116;2023-02-20T03:28:42;101285.84;;;9.68;85.48
59971;BME280;45825;45.434;9.116;2023-02-20T03:31:15;101274.75;;;9.59;85.69
59971;BME280;45825;45.434;9.116;2023-02-20T03:33:49;101288.75;;;9.60;85.90
59971;BME280;45825;45.434;9.116;2023-02-20T03:37:11;101281.66;;;9.62;85.65
59971;BME280;45825;45.434;9.116;2023-02-20T03:39:59;101289.00;;;9.52;87.11
59971;BME280;45825;45.434;9.116;2023-02-20T03:42:47;101292.25;;;9.59;86.91
59971;BME280;45825;45.434;9.116;2023-02-20T03:45:35;101296.56;;;9.61;85.92
59971;BME280;45825;45.434;9.116;2023-02-20T03:48:07;101309.22;;;9.50;86.85
59971;BME280;45825;45.434;9.116;2023-02-20T03:50:35;101307.41;;;9.52;86.30
59971;BME280;45825;45.434;9.116;2023-02-20T03:53:00;101313.69;;;9.48;86.90
59971;BME280;45825;45.434;9.116;2023-02-20T03:55:26;101316.31;;;9.48;86.40
59971;BME280;45825;45.434;9.116;2023-02-20T03:57:54;101315.28;;;9.52;86.34
59971;BME280;45825;45.434;9.116;2023-02-20T04:00:23;101310.84;;;9.54;86.43
59971;BME280;45825;45.434;9.116;2023-02-20T04:02:53;101313.41;;;9.56;86.51
59971;BME280;45825;45.434;9.116;2023-02-20T04:05:24;101322.09;;;9.58;86.25
59971;BME280;45825;45.434;9.116;2023-02-20T04:07:52;101319.72;;;9.50;86.93
59971;BME280;45825;45.434;9.116;2023-02-20T04:10:24;101329.59;;;9.43;87.34
59971;BME280;45825;45.434;9.116;2023-02-20T04:12:50;101334.84;;;9.43;88.00
59971;BME280;45825;45.434;9.116;2023-02-20T04:15:18;101342.69;;;9.45;87.60
59971;BME280;45825;45.434;9.116;2023-02-20T04:17:58;101335.59;;;9.47;88.32
59971;BME280;45825;45.434;9.116;2023-02-20T04:20:25;101342.53;;;9.49;88.47
59971;BME280;45825;45.434;9.116;2023-02-20T04:22:52;101352.78;;;9.30;90.54
59971;BME280;45825;45.434;9.116;2023-02-20T04:25:26;101351.41;;;9.45;89.25
59971;BME280;45825;45.434;9.116;2023-02-20T04:27:55;101359.38;;;9.44;89.84
59971;BME280;45825;45.434;9.116;2023-02-20T04:30:21;101352.28;;;9.46;89.43
59971;BME280;45825;45.434;9.116;2023-02-20T04:32:46;101350.34;;;9.51;89.50
59971;BME280;45825;45.434;9.116;2023-02-20T04:35:16;101356.13;;;9.35;91.12
59971;BME280;45825;45.434;9.116;2023-02-20T04:37:42;101357.88;;;9.35;91.58
59971;BME280;45825;45.434;9.116;2023-02-20T04:40:09;101347.88;;;9.46;91.09
59971;BME280;45825;45.434;9.116;2023-02-20T04:42:34;101357.47;;;9.20;92.59
59971;BME280;45825;45.434;9.116;2023-02-20T04:45:00;101363.34;;;9.29;92.61
59971;BME280;45825;45.434;9.116;2023-02-20T04:47:25;101372.16;;;9.28;92.70
59971;BME280;45825;45.434;9.116;2023-02-20T04:49:50;101376.81;;;9.18;94.31
59971;BME280;45825;45.434;9.116;2023-02-20T04:52:16;101377.88;;;9.12;94.88
59971;BME280;45825;45.434;9.116;2023-02-20T04:54:41;101386.41;;;9.19;94.27
59971;BME280;45825;45.434;9.116;2023-02-20T04:57:06;101379.34;;;9.21;94.43
59971;BME280;45825;45.434;9.116;2023-02-20T04:59:32;101382.03;;;9.19;94.51
59971;BME280;45825;45.434;9.116;2023-02-20T05:01:57;101388.47;;;9.09;95.76
59971;BME280;45825;45.434;9.116;2023-02-20T05:04:25;101384.78;;;9.15;96.42
59971;BME280;45825;45.434;9.116;2023-02-20T05:06:52;101394.94;;;9.26;95.73
59971;BME280;45825;45.434;9.116;2023-02-20T05:09:18;101393.34;;;9.21;97.10
59971;BME280;45825;45.434;9.116;2023-02-20T05:11:44;101400.19;;;9.26;96.55
59971;BME280;45825;45.434;9.116;2023-02-20T05:14:09;101401.09;;;9.25;97.39
59971;BME280;45825;45.434;9.116;2023-02-20T05:16:39;101399.34;;;9.25;97.45
59971;BME280;45825;45.434;9.116;2023-02-20T05:19:05;101404.31;;;9.34;96.03
59971;BME280;45825;45.434;9.116;2023-02-20T05:21:31;101417.13;;;9.17;97.96
59971;BME280;45825;45.434;9.116;2023-02-20T05:24:15;101417.78;;;9.23;97.50
59971;BME280;45825;45.434;9.116;2023-02-20T05:26:40;101420.34;;;9.27;97.39
59971;BME280;45825;45.434;9.116;2023-02-20T05:29:06;101420.78;;;9.11;98.72
59971;BME280;45825;45.434;9.116;2023-02-20T05:31:34;101425.25;;;9.09;99.99
59971;BME280;45825;45.434;9.116;2023-02-20T05:33:59;101427.88;;;9.09;99.68
59971;BME280;45825;45.434;9.116;2023-02-20T05:36:24;101425.75;;;9.20;98.47
59971;BME280;45825;45.434;9.116;2023-02-20T05:38:50;101435.41;;;9.20;99.83
59971;BME280;45825;45.434;9.116;2023-02-20T05:41:15;101432.91;;;9.15;99.46
59971;BME280;45825;45.434;9.116;2023-02-20T05:43:41;101439.56;;;9.27;98.62
59971;BME280;45825;45.434;9.116;2023-02-20T05:46:06;101434.19;;;9.30;98.40
59971;BME280;45825;45.434;9.116;2023-02-20T05:48:32;101434.31;;;9.27;99.15
59971;BME280;45825;45.434;9.116;2023-02-20T05:50:57;101440.56;;;9.23;100.00
59971;BME280;45825;45.434;9.116;2023-02-20T05:53:22;101441.66;;;9.16;100.00
59971;BME280;45825;45.434;9.116;2023-02-20T05:55:48;101436.41;;;9.16;100.00
59971;BME280;45825;45.434;9.116;2023-02-20T05:58:13;101436.38;;;9.17;100.00
59971;BME280;45825;45.434;9.116;2023-02-20T06:00:38;101443.22;;;9.21;100.00
59971;BME280;45825;45.434;9.116;2023-02-20T06:03:07;101441.03;;;9.36;99.79
59971;BME280;45825;45.434;9.116;2023-02-20T06:05:34;101449.38;;;9.22;100.00
59971;BME280;45825;45.434;9.116;2023-02-20T06:07:59;101447.28;;;9.03;100.00
59971;BME280;45825;45.434;9.116;2023-02-20T06:10:25;101444.91;;;9.24;100.00
59971;BME280;45825;45.434;9.116;2023-02-20T06:12:50;101448.50;;;9.21;100.00
59971;BME280;45825;45.434;9.116;2023-02-20T06:15:15;101444.84;;;9.26;100.00
59971;BME280;45825;45.434;9.116;2023-02-20T06:17:41;101452.38;;;9.38;100.00
59971;BME280;45825;45.434;9.116;2023-02-20T06:20:06;101453.09;;;9.42;99.53
59971;BME280;45825;45.434;9.116;2023-02-20T06:22:32;101453.19;;;9.40;99.54
59971;BME280;45825;45.434;9.116;2023-02-20T06:24:57;101458.94;;;9.52;98.88
59971;BME280;45825;45.434;9.116;2023-02-20T06:27:22;101462.56;;;9.47;100.00
59971;BME280;45825;45.434;9.116;2023-02-20T06:29:48;101468.69;;;9.48;99.75
59971;BME280;45825;45.434;9.116;2023-02-20T06:32:13;101473.03;;;9.49;100.00
59971;BME280;45825;45.434;9.116;2023-02-20T06:34:39;101482.97;;;9.39;100.00
59971;BME280;45825;45.434;9.116;2023-02-20T06:37:05;101483.78;;;9.41;100.00
59971;BME280;45825;45.434;9.116;2023-02-20T06:39:31;101488.94;;;9.44;100.00
59971;BME280;45825;45.434;9.116;2023-02-20T06:41:56;101495.13;;;9.42;100.00
59971;BME280;45825;45.434;9.116;2023-02-20T06:44:22;101485.53;;;9.41;100.00
59971;BME280;45825;45.434;9.116;2023-02-20T06:46:47;101493.81;;;9.57;99.33
59971;BME280;45825;45.434;9.116;2023-02-20T06:49:13;101502.50;;;9.59;99.94
59971;BME280;45825;45.434;9.116;2023-02-20T06:51:40;101502.41;;;9.62;98.79
59971;BME280;45825;45.434;9.116;2023-02-20T06:54:06;101500.50;;;9.67;98.86
59971;BME280;45825;45.434;9.116;2023-02-20T06:56:33;101514.16;;;9.78;98.18
59971;BME280;45825;45.434;9.116;2023-02-20T06:59:00;101516.88;;;9.75;98.34
59971;BME280;45825;45.434;9.116;2023-02-20T07:01:28;101523.75;;;9.79;97.95
59971;BME280;45825;45.434;9.116;2023-02-20T07:03:55;101526.22;;;9.84;97.75
59971;BME280;45825;45.434;9.116;2023-02-20T07:06:22;101527.13;;;9.83;97.52
59971;BME280;45825;45.434;9.116;2023-02-20T07:08:48;101528.16;;;9.79;98.45
59971;BME280;45825;45.434;9.116;2023-02-20T07:11:18;101528.56;;;9.67;98.50
59971;BME280;45825;45.434;9.116;2023-02-20T07:13:43;101532.69;;;9.74;98.26
59971;BME280;45825;45.434;9.116;2023-02-20T07:16:09;101534.34;;;9.49;100.00
59971;BME280;45825;45.434;9.116;2023-02-20T07:18:34;101535.28;;;9.75;99.81
59971;BME280;45825;45.434;9.116;2023-02-20T07:20:59;101539.19;;;9.90;99.14
59971;BME280;45825;45.434;9.116;2023-02-20T07:23:25;101545.16;;;9.96;98.24
59971;BME280;45825;45.434;9.116;2023-02-20T07:25:50;101552.97;;;9.99;98.04
59971;BME280;45825;45.434;9.116;2023-02-20T07:28:17;101557.19;;;10.03;96.75
59971;BME280;45825;45.434;9.116;2023-02-20T07:30:43;101551.94;;;10.03;95.98
59971;BME280;45825;45.434;9.116;2023-02-20T07:33:10;101557.00;;;10.09;96.14
59971;BME280;45825;45.434;9.116;2023-02-20T07:35:36;101552.47;;;10.13;95.63
59971;BME280;45825;45.434;9.116;2023-02-20T07:38:02;101553.38;;;10.12;96.09
59971;BME280;45825;45.434;9.116;2023-02-20T07:40:27;101548.09;;;10.13;95.46
59971;BME280;45825;45.434;9.116;2023-02-20T07:42:53;101554.97;;;10.17;95.26
59971;BME280;45825;45.434;9.116;2023-02-20T07:45:18;101552.09;;;10.25;95.81
59971;BME280;45825;45.434;9.116;2023-02-20T07:47:43;101550.38;;;10.24;95.50
59971;BME280;45825;45.434;9.116;2023-02-20T07:50:09;101561.06;;;10.19;95.50
59971;BME280;45825;45.434;9.116;2023-02-20T07:52:35;101558.19;;;10.26;95.52
59971;BME280;45825;45.434;9.116;2023-02-20T07:55:01;101558.41;;;10.19;95.35
59971;BME280;45825;45.434;9.116;2023-02-20T07:57:34;101557.41;;;10.24;95.23
59971;BME280;45825;45.434;9.116;2023-02-20T08:00:00;101558.19;;;10.26;94.79
59971;BME280;45825;45.434;9.116;2023-02-20T08:02:25;101560.22;;;10.17;94.83
59971;BME280;45825;45.434;9.116;2023-02-20T08:04:50;101556.38;;;10.28;94.46
59971;BME280;45825;45.434;9.116;2023-02-20T08:07:16;101553.75;;;10.28;94.51
59971;BME280;45825;45.434;9.116;2023-02-20T08:09:45;101552.59;;;10.37;94.19
59971;BME280;45825;45.434;9.116;2023-02-20T08:12:12;101552.53;;;10.38;94.55
59971;BME280;45825;45.434;9.116;2023-02-20T08:14:37;101560.28;;;10.43;94.22
59971;BME280;45825;45.434;9.116;2023-02-20T08:17:03;101564.63;;;10.44;93.52
59971;BME280;45825;45.434;9.116;2023-02-20T08:19:28;101563.91;;;10.39;93.58
59971;BME280;45825;45.434;9.116;2023-02-20T08:21:53;101562.25;;;10.36;93.63
59971;BME280;45825;45.434;9.116;2023-02-20T08:24:19;101567.47;;;10.38;93.87
59971;BME280;45825;45.434;9.116;2023-02-20T08:26:47;101561.00;;;10.48;93.23
59971;BME280;45825;45.434;9.116;2023-02-20T08:29:14;101569.97;;;10.41;93.18
59971;BME280;45825;45.434;9.116;2023-02-20T08:31:39;101564.44;;;10.50;93.00
59971;BME280;45825;45.434;9.116;2023-02-20T08:34:05;101560.53;;;10.35;93.39
59971;BME280;45825;45.434;9.116;2023-02-20T08:36:30;101564.91;;;10.34;93.51
59971;BME280;45825;45.434;9.116;2023-02-20T08:38:57;101561.97;;;10.45;93.77
59971;BME280;45825;45.434;9.116;2023-02-20T08:41:24;101561.66;;;10.55;92.29
59971;BME280;45825;45.434;9.116;2023-02-20T08:43:50;101550.47;;;10.48;93.12
59971;BME280;45825;45.434;9.116;2023-02-20T08:46:15;101560.91;;;10.51;92.29
59971;BME280;45825;45.434;9.116;2023-02-20T08:48:42;101562.66;;;10.51;92.77
59971;BME280;45825;45.434;9.116;2023-02-20T08:51:07;101565.09;;;10.57;92.61
59971;BME280;45825;45.434;9.116;2023-02-20T08:53:33;101562.28;;;10.61;91.64
59971;BME280;45825;45.434;9.116;2023-02-20T08:55:59;101560.53;;;10.62;91.51
59971;BME280;45825;45.434;9.116;2023-02-20T08:58:25;101552.28;;;10.71;91.78
59971;BME280;45825;45.434;9.116;2023-02-20T09:00:51;101544.47;;;10.70;91.56
59971;BME280;45825;45.434;9.116;2023-02-20T09:03:16;101543.38;;;10.75;90.92
59971;BME280;45825;45.434;9.116;2023-02-20T09:05:42;101550.38;;;10.76;90.65
59971;BME280;45825;45.434;9.116;2023-02-20T09:08:08;101553.69;;;10.82;91.10
59971;BME280;45825;45.434;9.116;2023-02-20T09:10:34;101553.50;;;10.86;90.10
59971;BME280;45825;45.434;9.116;2023-02-20T09:12:59;101549.16;;;10.85;90.96
59971;BME280;45825;45.434;9.116;2023-02-20T09:15:24;101554.44;;;10.85;90.74
59971;BME280;45825;45.434;9.116;2023-02-20T09:17:51;101554.59;;;10.81;90.93
59971;BME280;45825;45.434;9.116;2023-02-20T09:20:18;101561.91;;;10.72;91.35
59971;BME280;45825;45.434;9.116;2023-02-20T09:22:46;101565.09;;;10.57;92.30
59971;BME280;45825;45.434;9.116;2023-02-20T09:25:12;101567.19;;;10.47;93.44
59971;BME280;45825;45.434;9.116;2023-02-20T09:27:37;101565.09;;;10.57;93.25
59971;BME280;45825;45.434;9.116;2023-02-20T09:30:03;101570.06;;;10.65;92.81
59971;BME280;45825;45.434;9.116;2023-02-20T09:32:29;101564.78;;;10.66;92.17
59971;BME280;45825;45.434;9.116;2023-02-20T09:34:54;101559.97;;;10.78;91.42
59971;BME280;45825;45.434;9.116;2023-02-20T09:37:21;101562.97;;;10.92;90.78
59971;BME280;45825;45.434;9.116;2023-02-20T09:39:47;101558.69;;;10.89;90.73
59971;BME280;45825;45.434;9.116;2023-02-20T09:42:36;101567.47;;;10.88;91.17
59971;BME280;45825;45.434;9.116;2023-02-20T09:50:05;101557.16;;;11.08;89.91
59971;BME280;45825;45.434;9.116;2023-02-20T09:52:35;101556.91;;;11.14;89.89
59971;BME280;45825;45.434;9.116;2023-02-20T09:55:07;101562.94;;;11.17;89.62
59971;BME280;45825;45.434;9.116;2023-02-20T09:57:36;101563.69;;;11.21;89.36
59971;BME280;45825;45.434;9.116;2023-02-20T10:00:19;101563.38;;;11.29;87.90
59971;BME280;45825;45.434;9.116;2023-02-20T10:05:42;101560.75;;;11.05;89.03
59971;BME280;45825;45.434;9.116;2023-02-20T10:08:10;101563.84;;;11.16;89.12
59971;BME280;45825;45.434;9.116;2023-02-20T10:10:36;101569.75;;;11.23;88.42
59971;BME280;45825;45.434;9.116;2023-02-20T10:13:31;101570.44;;;11.28;88.00
59971;BME280;45825;45.434;9.116;2023-02-20T10:16:17;101566.00;;;10.81;89.68
59971;BME280;45825;45.434;9.116;2023-02-20T10:18:47;101560.59;;;11.10;88.67
59971;BME280;45825;45.434;9.116;2023-02-20T10:29:58;101565.44;;;11.21;87.16
59971;BME280;45825;45.434;9.116;2023-02-20T10:32:30;101551.13;;;11.28;87.20
59971;BME280;45825;45.434;9.116;2023-02-20T10:35:10;101550.72;;;11.39;87.19
59971;BME280;45825;45.434;9.116;2023-02-20T10:37:42;101556.44;;;11.50;86.24
59971;BME280;45825;45.434;9.116;2023-02-20T10:40:19;101552.13;;;11.48;86.33
59971;BME280;45825;45.434;9.116;2023-02-20T10:42:57;101544.06;;;11.52;85.66
59971;BME280;45825;45.434;9.116;2023-02-20T10:45:41;101529.75;;;11.36;86.50
59971;BME280;45825;45.434;9.116;2023-02-20T10:48:11;101542.47;;;11.24;86.59
59971;BME280;45825;45.434;9.116;2023-02-20T10:59:15;101540.69;;;11.93;84.19
59971;BME280;45825;45.434;9.116;2023-02-20T11:01:45;101529.50;;;11.64;85.84
59971;BME280;45825;45.434;9.116;2023-02-20T11:04:18;101526.69;;;11.91;83.61
59971;BME280;45825;45.434;9.116;2023-02-20T11:06:49;101525.38;;;12.03;82.87
59971;BME280;45825;45.434;9.116;2023-02-20T11:09:17;101516.81;;;11.96;82.35
59971;BME280;45825;45.434;9.116;2023-02-20T11:11:44;101521.97;;;11.77;83.12
59971;BME280;45825;45.434;9.116;2023-02-20T11:14:45;101509.25;;;11.66;83.87
59971;BME280;45825;45.434;9.116;2023-02-20T11:17:11;101509.97;;;11.70;83.87
59971;BME280;45825;45.434;9.116;2023-02-20T11:19:44;101501.34;;;11.66;83.87
59971;BME280;45825;45.434;9.116;2023-02-20T11:22:11;101497.56;;;11.94;82.64
59971;BME280;45825;45.434;9.116;2023-02-20T11:24:41;101504.69;;;12.14;81.80
59971;BME280;45825;45.434;9.116;2023-02-20T11:27:24;101487.06;;;12.36;80.44
59971;BME280;45825;45.434;9.116;2023-02-20T11:30:11;101486.84;;;12.40;79.81
59971;BME280;45825;45.434;9.116;2023-02-20T11:32:41;101474.34;;;12.65;78.50
59971;BME280;45825;45.434;9.116;2023-02-20T11:37:42;101476.53;;;12.55;77.69
59971;BME280;45825;45.434;9.116;2023-02-20T11:42:41;101466.44;;;12.84;76.33
59971;BME280;45825;45.434;9.116;2023-02-20T11:45:16;101456.88;;;12.81;77.06
59971;BME280;45825;45.434;9.116;2023-02-20T11:47:42;101461.84;;;12.28;78.63
59971;BME280;45825;45.434;9.116;2023-02-20T11:50:18;101453.41;;;11.77;82.40
59971;BME280;45825;45.434;9.116;2023-02-20T11:52:59;101448.59;;;12.09;81.36
59971;BME280;45825;45.434;9.116;2023-02-20T11:55:25;101442.38;;;12.10;81.00
59971;BME280;45825;45.434;9.116;2023-02-20T11:57:51;101450.72;;;12.62;79.40
59971;BME280;45825;45.434;9.116;2023-02-20T12:00:23;101434.81;;;12.82;77.68
59971;BME280;45825;45.434;9.116;2023-02-20T12:02:50;101432.88;;;13.05;76.97
59971;BME280;45825;45.434;9.116;2023-02-20T12:05:17;101428.25;;;12.32;80.12
59971;BME280;45825;45.434;9.116;2023-02-20T12:13:05;101404.97;;;14.58;69.36
59971;BME280;45825;45.434;9.116;2023-02-20T12:15:30;101405.25;;;15.95;64.38
59971;BME280;45825;45.434;9.116;2023-02-20T12:20:52;101390.63;;;17.57;56.58
59971;BME280;45825;45.434;9.116;2023-02-20T12:23:37;101375.13;;;20.34;49.72
59971;BME280;45825;45.434;9.116;2023-02-20T12:28:59;101364.38;;;21.24;44.45
59971;BME280;45825;45.434;9.116;2023-02-20T12:36:55;101353.00;;;22.26;42.27
59971;BME280;45825;45.434;9.116;2023-02-20T12:39:38;101350.00;;;22.51;42.46
59971;BME280;45825;45.434;9.116;2023-02-20T12:45:10;101344.16;;;22.04;42.02
59971;BME280;45825;45.434;9.116;2023-02-20T12:47:41;101333.34;;;23.65;39.89
59971;BME280;45825;45.434;9.116;2023-02-20T12:55:45;101313.84;;;25.74;34.70
59971;BME280;45825;45.434;9.116;2023-02-20T12:58:33;101296.00;;;24.20;36.78
59971;BME280;45825;45.434;9.116;2023-02-20T13:01:05;101290.44;;;25.48;34.98
59971;BME280;45825;45.434;9.116;2023-02-20T13:03:48;101288.94;;;25.80;34.73
59971;BME280;45825;45.434;9.116;2023-02-20T13:06:27;101284.78;;;24.24;36.27
59971;BME280;45825;45.434;9.116;2023-02-20T13:09:13;101282.56;;;24.84;36.17
59971;BME280;45825;45.434;9.116;2023-02-20T13:11:42;101276.38;;;25.63;35.00
59971;BME280;45825;45.434;9.116;2023-02-20T13:16:45;101270.69;;;24.40;37.00
59971;BME280;45825;45.434;9.116;2023-02-20T13:19:25;101261.06;;;24.92;35.41
59971;BME280;45825;45.434;9.116;2023-02-20T13:21:55;101257.31;;;24.67;35.93
59971;BME280;45825;45.434;9.116;2023-02-20T13:26:48;101255.84;;;25.62;34.53
59971;BME280;45825;45.434;9.116;2023-02-20T13:29:16;101240.09;;;24.78;34.60
59971;BME280;45825;45.434;9.116;2023-02-20T13:31:52;101253.63;;;23.28;38.26
59971;BME280;45825;45.434;9.116;2023-02-20T13:36:47;101228.69;;;26.66;32.64
59971;BME280;45825;45.434;9.116;2023-02-20T13:52:45;101206.75;;;25.85;32.67
59971;BME280;45825;45.434;9.116;2023-02-20T13:55:22;101208.97;;;25.20;33.85
59971;BME280;45825;45.434;9.116;2023-02-20T14:02:54;101203.69;;;24.01;36.29
59971;BME280;45825;45.434;9.116;2023-02-20T14:05:28;101200.41;;;23.79;36.96
59971;BME280;45825;45.434;9.116;2023-02-20T14:07:55;101202.88;;;23.15;38.01
59971;BME280;45825;45.434;9.116;2023-02-20T14:10:31;101201.38;;;21.73;40.40
59971;BME280;45825;45.434;9.116;2023-02-20T14:12:58;101203.84;;;21.86;41.01
59971;BME280;45825;45.434;9.116;2023-02-20T14:15:25;101192.59;;;22.22;39.71
59971;BME280;45825;45.434;9.116;2023-02-20T14:17:51;101197.03;;;19.89;43.77
59971;BME280;45825;45.434;9.116;2023-02-20T14:20:24;101202.16;;;17.38;51.80
59971;BME280;45825;45.434;9.116;2023-02-20T14:25:55;101195.88;;;18.15;50.52
59971;BME280;45825;45.434;9.116;2023-02-20T14:28:20;101196.97;;;17.24;53.20
59971;BME280;45825;45.434;9.116;2023-02-20T14:30:46;101193.53;;;17.48;52.89
59971;BME280;45825;45.434;9.116;2023-02-20T14:33:30;101190.97;;;18.22;50.09
59971;BME280;45825;45.434;9.116;2023-02-20T14:38:49;101190.19;;;18.20;50.15
59971;BME280;45825;45.434;9.116;2023-02-20T14:41:18;101182.16;;;17.33;52.81
59971;BME280;45825;45.434;9.116;2023-02-20T14:43:53;101184.84;;;16.39;55.77
59971;BME280;45825;45.434;9.116;2023-02-20T14:46:22;101192.66;;;16.27;56.79
59971;BME280;45825;45.434;9.116;2023-02-20T14:48:48;101187.59;;;15.81;58.30
59971;BME280;45825;45.434;9.116;2023-02-20T14:53:42;101184.16;;;15.06;60.88